Airfield :
LOGIN :

Register | Disclaimer

   EN    FR    IT 

 










Legend :    VFR   Marginal VFR   IFR   Intensive IFR   Very Intensive IFR
Visi :
Ceiling :
>= 8 km
>= 3000ft
5 to 8 km
1000 to 3000 ft
1500m to 5 km
500 to 1000 ft
800 to 1500m
200 to 500 ft
< 800m
< 200 ft
Symbols :   Thunderstorms  Fog  Heavy snow  Heavy precipitations  Wind > 20 kt
SIGMETs :     Misc.  Thunderstorms  Icing  Turbulence  Mountain Waves  Volcanic Ashes







- Airport Elevation : 400 ft
- IATA code : BNX


LQBK - Banja Luka

CURRENT METAR :
  • 191100Z 09005KT 040V150 9999 FEW030 02/M03 Q1021 NOSIG

EXPIRED METARs :
  • 191030Z 09005KT 040V150 9999 FEW030 02/M03 Q1021 NOSIG
  • 191000Z 10005KT 050V150 9999 FEW030 02/M03 Q1021 NOSIG
  • 190900Z 05006KT 3600V080 9999 FEW030 01/M03 Q1022 NOSIG
  • 190830Z 07006KT 020V110 9999 SCT047 01/M03 Q1022 NOSIG

TAF TAF LQBK
Valid from the 19 at 06:00 until the 20 at 06:00 UTC


190500Z 1906/2006 04006KT 7000 SCT007 BKN040 TX02/1912Z TNM02/2006Z
PROB40
TEMPO 1906/1909 3000 BR
BECMG 1912/1915 2000 -SN BR BKN007 OVC020
TEMPO 1918/2006 1000 SN BKN003 OVC013
No reported NOTAMs for that airfield.



MET'MAP, your aeronautical weather chart ! - Copyright ORBIFLY December 2007 - Disclaimer

ORBIFLY MET'MAP TEAM :

Programming & Development : Alexandra Zaïnal
Concept & Development : Baudouin d'Aumeries
Co-Development & Prog : Marc-Olivier Méhu
Technical & hardware support : Manuel Goepfert

Contact : metmap@orbifly.com




SOURCES & CREDITS :

   NOAA